Wetterdaten: Woche 15.05.17 - 21.05.17 (KW20)
Datum Zeit Temp. A. Feuchte A. Luftdruck Regen Wind Richtung Taupunkt Windchill Windben
15.05.2017 00:00 17,4 C 73 % 1022,2 hPa 0,0 l/m 2,3 km/h N 12,6 C 17,3 C 10,5 km/h
15.05.2017 01:00 16,8 C 74 % 1022,2 hPa 0,0 l/m 1,2 km/h N 12,2 C 16,8 C 9,3 km/h
15.05.2017 02:00 17,0 C 70 % 1021,9 hPa 0,0 l/m 6,3 km/h N 11,4 C 16,8 C 20,5 km/h
15.05.2017 03:00 16,8 C 67 % 1022,2 hPa 0,0 l/m 5,2 km/h N 10,7 C 16,8 C 16,1 km/h
15.05.2017 04:00 16,7 C 69 % 1022,6 hPa 0,0 l/m 3,0 km/h N 11,0 C 16,7 C 12,1 km/h
15.05.2017 05:00 16,6 C 72 % 1023,2 hPa 0,0 l/m 5,3 km/h N 11,5 C 16,6 C 17,7 km/h
15.05.2017 06:00 16,2 C 75 % 1023,9 hPa 0,0 l/m 4,5 km/h N 11,8 C 16,2 C 15,7 km/h
15.05.2017 07:00 15,9 C 78 % 1024,6 hPa 0,0 l/m 5,5 km/h N 12,0 C 15,9 C 16,9 km/h
15.05.2017 08:00 16,5 C 77 % 1025,1 hPa 0,0 l/m 6,0 km/h N 12,5 C 16,5 C 16,9 km/h
15.05.2017 09:00 17,3 C 75 % 1025,5 hPa 0,0 l/m 5,2 km/h N 12,9 C 17,3 C 15,7 km/h
15.05.2017 10:00 17,9 C 73 % 1025,8 hPa 0,0 l/m 7,1 km/h N 13,0 C 17,3 C 21,3 km/h
15.05.2017 11:00 18,7 C 72 % 1025,8 hPa 0,0 l/m 8,5 km/h N 13,6 C 17,7 C 22,5 km/h
15.05.2017 12:00 19,6 C 69 % 1025,9 hPa 0,0 l/m 9,4 km/h N 13,6 C 18,4 C 25,8 km/h
15.05.2017 13:00 19,5 C 69 % 1025,8 hPa 0,0 l/m 8,4 km/h N 13,7 C 18,7 C 21,3 km/h
15.05.2017 14:00 20,0 C 69 % 1025,6 hPa 0,0 l/m 6,2 km/h N 14,1 C 19,7 C 19,7 km/h
15.05.2017 15:00 20,3 C 67 % 1025,2 hPa 0,0 l/m 5,6 km/h N 13,8 C 20,1 C 18,1 km/h
15.05.2017 16:00 20,8 C 65 % 1024,9 hPa 0,0 l/m 5,7 km/h N 13,9 C 20,8 C 21,3 km/h
15.05.2017 17:00 19,0 C 72 % 1025,3 hPa 3,1 l/m 2,0 km/h N 13,6 C 18,8 C 8,1 km/h
15.05.2017 18:00 18,5 C 77 % 1025,2 hPa 0,3 l/m 0,2 km/h N 14,3 C 18,5 C 4,8 km/h
15.05.2017 19:00 18,4 C 75 % 1025,6 hPa 0,0 l/m 1,7 km/h N 13,7 C 18,3 C 6,4 km/h
15.05.2017 20:00 16,9 C 75 % 1026,5 hPa 0,0 l/m 3,3 km/h N 12,3 C 16,9 C 15,3 km/h
15.05.2017 21:00 16,1 C 77 % 1027,1 hPa 0,0 l/m 4,6 km/h N 12,0 C 16,1 C 16,9 km/h
15.05.2017 22:00 16,0 C 77 % 1027,2 hPa 0,0 l/m 4,4 km/h N 12,0 C 16,0 C 14,5 km/h
15.05.2017 23:00 16,1 C 75 % 1027,3 hPa 0,3 l/m 0,9 km/h N 11,7 C 16,1 C 6,0 km/h
16.05.2017 00:00 15,2 C 77 % 1027,5 hPa 0,0 l/m 0,9 km/h N 11,2 C 15,2 C 6,4 km/h
16.05.2017 01:00 15,2 C 76 % 1027,5 hPa 0,0 l/m 2,6 km/h N 10,9 C 15,2 C 10,9 km/h
16.05.2017 02:00 15,1 C 76 % 1027,5 hPa 0,0 l/m 3,4 km/h N 10,9 C 15,1 C 13,7 km/h
16.05.2017 03:00 15,2 C 76 % 1027,5 hPa 0,0 l/m 5,0 km/h N 10,9 C 15,2 C 15,7 km/h
16.05.2017 04:00 15,0 C 76 % 1027,5 hPa 0,0 l/m 4,4 km/h N 10,8 C 15,0 C 14,9 km/h
16.05.2017 05:00 14,8 C 76 % 1027,8 hPa 0,0 l/m 2,3 km/h N 10,7 C 14,8 C 11,3 km/h
16.05.2017 06:00 14,9 C 77 % 1028,1 hPa 0,0 l/m 3,1 km/h N 10,8 C 14,9 C 14,1 km/h
16.05.2017 07:00 15,6 C 76 % 1028,4 hPa 0,0 l/m 5,2 km/h N 11,3 C 15,5 C 16,9 km/h
16.05.2017 08:00 16,8 C 73 % 1028,8 hPa 0,0 l/m 4,7 km/h N 11,9 C 16,8 C 16,9 km/h
16.05.2017 09:00 18,3 C 71 % 1028,8 hPa 0,0 l/m 4,0 km/h N 12,9 C 18,3 C 14,9 km/h
16.05.2017 10:00 19,5 C 67 % 1028,6 hPa 0,0 l/m 3,9 km/h N 13,1 C 19,5 C 14,1 km/h
16.05.2017 11:00 20,5 C 61 % 1028,4 hPa 0,0 l/m 4,6 km/h N 12,8 C 20,5 C 17,3 km/h
16.05.2017 12:00 21,2 C 59 % 1028,0 hPa 0,0 l/m 5,2 km/h N 12,7 C 21,2 C 19,3 km/h
16.05.2017 13:00 21,9 C 56 % 1027,4 hPa 0,0 l/m 3,9 km/h N 12,6 C 21,9 C 15,3 km/h
16.05.2017 14:00 22,5 C 51 % 1026,8 hPa 0,0 l/m 4,9 km/h N 11,8 C 22,5 C 18,1 km/h
16.05.2017 15:00 22,8 C 49 % 1026,1 hPa 0,0 l/m 4,0 km/h N 11,6 C 22,8 C 15,7 km/h
16.05.2017 16:00 22,8 C 50 % 1025,7 hPa 0,0 l/m 4,7 km/h N 11,7 C 22,8 C 18,5 km/h
16.05.2017 17:00 22,5 C 51 % 1025,3 hPa 0,0 l/m 4,8 km/h N 11,7 C 22,5 C 16,1 km/h
16.05.2017 18:00 22,7 C 50 % 1025,0 hPa 0,0 l/m 3,1 km/h N 11,8 C 22,7 C 12,9 km/h
16.05.2017 19:00 22,2 C 49 % 1025,1 hPa 0,0 l/m 1,7 km/h N 10,9 C 22,2 C 9,3 km/h
16.05.2017 20:00 20,8 C 54 % 1025,3 hPa 0,0 l/m 0,1 km/h N 11,1 C 20,8 C 2,0 km/h
16.05.2017 21:00 18,5 C 62 % 1025,8 hPa 0,0 l/m 0,0 km/h N 10,9 C 18,5 C 0,4 km/h
16.05.2017 22:00 16,6 C 71 % 1026,3 hPa 0,0 l/m 0,1 km/h N 11,3 C 16,6 C 1,6 km/h
16.05.2017 23:00 16,7 C 72 % 1026,6 hPa 0,0 l/m 0,0 km/h N 11,5 C 16,7 C 0,4 km/h
17.05.2017 00:00 16,5 C 73 % 1026,7 hPa 0,0 l/m 0,0 km/h N 11,6 C 16,5 C 2,0 km/h
17.05.2017 01:00 16,8 C 70 % 1026,5 hPa 0,0 l/m 0,0 km/h N 11,4 C 16,8 C 1,6 km/h
17.05.2017 02:00 16,5 C 71 % 1026,2 hPa 0,0 l/m 0,1 km/h N 11,1 C 16,5 C 1,6 km/h
17.05.2017 03:00 15,8 C 72 % 1026,0 hPa 0,0 l/m 0,0 km/h N 10,8 C 15,8 C 1,6 km/h
17.05.2017 04:00 14,7 C 75 % 1025,7 hPa 0,0 l/m 0,0 km/h N 10,2 C 14,7 C 0,0 km/h
17.05.2017 05:00 13,3 C 79 % 1025,6 hPa 0,0 l/m 0,0 km/h N 9,7 C 13,3 C 0,0 km/h
17.05.2017 06:00 13,4 C 81 % 1025,5 hPa 0,0 l/m 0,0 km/h N 10,1 C 13,4 C 0,0 km/h
17.05.2017 07:00 14,6 C 80 % 1025,6 hPa 0,0 l/m 0,1 km/h N 11,2 C 14,6 C 1,6 km/h
17.05.2017 08:00 17,3 C 72 % 1025,5 hPa 0,0 l/m 0,3 km/h N 12,1 C 17,3 C 5,6 km/h
17.05.2017 09:00 19,7 C 62 % 1025,3 hPa 0,0 l/m 0,2 km/h N 12,1 C 19,7 C 3,6 km/h
17.05.2017 10:00 21,6 C 59 % 1024,9 hPa 0,0 l/m 0,5 km/h N 13,2 C 21,6 C 5,2 km/h
17.05.2017 11:00 22,6 C 57 % 1024,5 hPa 0,0 l/m 0,6 km/h N 13,5 C 22,6 C 6,8 km/h
17.05.2017 12:00 23,5 C 51 % 1024,0 hPa 0,0 l/m 0,9 km/h N 12,8 C 23,5 C 8,0 km/h
17.05.2017 13:00 23,2 C 48 % 1023,5 hPa 0,0 l/m 1,1 km/h N 11,6 C 23,2 C 7,6 km/h
17.05.2017 14:00 23,1 C 48 % 1023,0 hPa 0,0 l/m 0,8 km/h N 11,3 C 23,1 C 6,8 km/h
17.05.2017 15:00 22,3 C 48 % 1022,4 hPa 0,0 l/m 0,7 km/h N 10,7 C 22,3 C 6,0 km/h
17.05.2017 16:00 22,1 C 48 % 1021,7 hPa 0,0 l/m 0,6 km/h N 10,4 C 22,1 C 5,2 km/h
17.05.2017 17:00 22,2 C 46 % 1021,1 hPa 0,0 l/m 0,4 km/h N 10,1 C 22,2 C 6,8 km/h
17.05.2017 18:00 23,2 C 43 % 1020,6 hPa 0,0 l/m 0,4 km/h N 9,7 C 23,2 C 6,4 km/h
17.05.2017 19:00 23,0 C 42 % 1020,2 hPa 0,0 l/m 0,2 km/h N 9,2 C 23,0 C 2,8 km/h
17.05.2017 20:00 21,0 C 46 % 1020,1 hPa 0,0 l/m 0,0 km/h N 8,9 C 21,0 C 0,8 km/h
17.05.2017 21:00 17,1 C 57 % 1020,1 hPa 0,0 l/m 0,0 km/h N 8,5 C 17,1 C 0,0 km/h
17.05.2017 22:00 14,4 C 67 % 1020,1 hPa 0,0 l/m 0,0 km/h N 8,3 C 14,4 C 0,0 km/h
17.05.2017 23:00 12,6 C 73 % 1019,7 hPa 0,0 l/m 0,0 km/h N 7,8 C 12,6 C 0,0 km/h
18.05.2017 00:00 11,5 C 77 % 1019,4 hPa 0,0 l/m 0,0 km/h N 7,5 C 11,5 C 0,0 km/h
18.05.2017 01:00 10,6 C 79 % 1019,1 hPa 0,0 l/m 0,0 km/h N 7,1 C 10,6 C 0,0 km/h
18.05.2017 02:00 9,9 C 81 % 1018,6 hPa 0,0 l/m 0,0 km/h N 6,7 C 9,9 C 0,0 km/h
18.05.2017 03:00 9,9 C 82 % 1018,0 hPa 0,0 l/m 0,0 km/h N 7,0 C 9,9 C 0,0 km/h
18.05.2017 04:00 9,9 C 82 % 1017,3 hPa 0,0 l/m 0,0 km/h N 6,9 C 9,9 C 0,0 km/h
18.05.2017 05:00 9,8 C 82 % 1016,8 hPa 0,0 l/m 0,0 km/h N 6,9 C 9,8 C 0,8 km/h
18.05.2017 06:00 10,8 C 82 % 1016,3 hPa 0,0 l/m 0,1 km/h N 7,8 C 10,8 C 2,4 km/h
18.05.2017 07:00 13,1 C 79 % 1015,9 hPa 0,0 l/m 0,0 km/h N 9,5 C 13,1 C 1,2 km/h
18.05.2017 08:00 17,5 C 66 % 1015,6 hPa 0,0 l/m 2,0 km/h N 10,9 C 17,5 C 8,9 km/h
18.05.2017 09:00 22,1 C 50 % 1015,4 hPa 0,0 l/m 4,4 km/h N 11,2 C 22,1 C 17,3 km/h
18.05.2017 10:00 23,8 C 43 % 1015,2 hPa 0,0 l/m 4,8 km/h N 10,3 C 23,8 C 17,3 km/h
18.05.2017 11:00 25,3 C 40 % 1015,0 hPa 0,0 l/m 5,1 km/h N 10,6 C 25,3 C 15,3 km/h
18.05.2017 12:00 26,5 C 40 % 1014,6 hPa 0,0 l/m 4,9 km/h N 11,7 C 26,5 C 19,3 km/h
18.05.2017 13:00 27,0 C 40 % 1014,3 hPa 0,0 l/m 4,7 km/h N 12,1 C 27,0 C 18,5 km/h
18.05.2017 14:00 27,5 C 38 % 1013,8 hPa 0,0 l/m 4,9 km/h N 12,0 C 27,5 C 16,5 km/h
18.05.2017 15:00 26,8 C 39 % 1013,3 hPa 0,0 l/m 4,6 km/h N 11,7 C 26,8 C 16,9 km/h
18.05.2017 16:00 26,1 C 40 % 1012,8 hPa 0,0 l/m 4,0 km/h N 11,6 C 26,1 C 14,5 km/h
18.05.2017 17:00 25,9 C 41 % 1012,6 hPa 0,0 l/m 3,9 km/h N 11,6 C 25,9 C 12,5 km/h
18.05.2017 18:00 26,0 C 40 % 1012,3 hPa 0,0 l/m 2,8 km/h N 11,5 C 26,0 C 11,7 km/h
18.05.2017 19:00 25,2 C 42 % 1012,2 hPa 0,0 l/m 2,5 km/h N 11,3 C 25,2 C 11,7 km/h
18.05.2017 20:00 23,1 C 45 % 1012,1 hPa 0,0 l/m 1,4 km/h N 10,4 C 23,1 C 6,4 km/h
18.05.2017 21:00 21,0 C 49 % 1012,2 hPa 0,0 l/m 0,1 km/h N 9,8 C 21,0 C 3,6 km/h
18.05.2017 22:00 19,8 C 54 % 1012,1 hPa 0,0 l/m 0,1 km/h N 10,0 C 19,8 C 3,2 km/h
18.05.2017 23:00 17,7 C 60 % 1012,0 hPa 0,0 l/m 0,0 km/h N 9,8 C 17,7 C 0,4 km/h
19.05.2017 00:00 16,1 C 65 % 1011,5 hPa 0,0 l/m 0,0 km/h N 9,6 C 16,1 C 0,0 km/h
19.05.2017 01:00 14,4 C 69 % 1011,1 hPa 0,0 l/m 0,0 km/h N 8,7 C 14,4 C 0,0 km/h
19.05.2017 02:00 12,7 C 75 % 1010,9 hPa 0,0 l/m 0,0 km/h N 8,4 C 12,7 C 0,0 km/h
19.05.2017 03:00 11,7 C 79 % 1010,7 hPa 0,0 l/m 0,0 km/h N 8,1 C 11,7 C 0,0 km/h
19.05.2017 04:00 11,8 C 80 % 1010,4 hPa 0,0 l/m 0,0 km/h N 8,5 C 11,8 C 0,0 km/h
19.05.2017 05:00 12,9 C 78 % 1010,1 hPa 0,0 l/m 0,0 km/h N 9,2 C 12,9 C 0,4 km/h
19.05.2017 06:00 14,7 C 72 % 1010,3 hPa 0,0 l/m 0,0 km/h N 9,7 C 14,7 C 1,6 km/h
19.05.2017 07:00 16,1 C 70 % 1010,3 hPa 0,0 l/m 0,1 km/h N 10,6 C 16,1 C 2,8 km/h
19.05.2017 08:00 19,6 C 60 % 1010,0 hPa 0,0 l/m 2,6 km/h N 11,7 C 19,6 C 12,1 km/h
19.05.2017 09:00 22,8 C 53 % 1009,5 hPa 0,0 l/m 4,1 km/h N 12,6 C 22,8 C 16,5 km/h
19.05.2017 10:00 24,8 C 48 % 1009,2 hPa 0,0 l/m 4,2 km/h N 12,9 C 24,8 C 13,3 km/h
19.05.2017 11:00 25,7 C 46 % 1009,1 hPa 0,0 l/m 5,0 km/h N 13,2 C 25,7 C 14,9 km/h
19.05.2017 12:00 26,7 C 44 % 1008,9 hPa 0,0 l/m 5,4 km/h N 13,4 C 26,7 C 16,1 km/h
19.05.2017 13:00 27,5 C 44 % 1008,6 hPa 0,0 l/m 5,0 km/h N 13,9 C 27,5 C 20,1 km/h
19.05.2017 14:00 28,1 C 41 % 1008,4 hPa 0,0 l/m 4,8 km/h N 13,5 C 28,1 C 17,7 km/h
19.05.2017 15:00 27,6 C 38 % 1008,0 hPa 0,0 l/m 5,0 km/h N 12,1 C 27,6 C 16,5 km/h
19.05.2017 16:00 27,0 C 36 % 1007,7 hPa 0,0 l/m 4,7 km/h N 10,7 C 27,0 C 14,1 km/h
19.05.2017 17:00 26,8 C 36 % 1007,4 hPa 0,0 l/m 3,6 km/h N 10,2 C 26,8 C 15,7 km/h
19.05.2017 18:00 26,8 C 38 % 1007,1 hPa 0,0 l/m 3,9 km/h N 11,3 C 26,8 C 12,5 km/h
19.05.2017 19:00 26,2 C 43 % 1007,0 hPa 0,0 l/m 1,9 km/h N 12,4 C 26,2 C 11,3 km/h
19.05.2017 20:00 24,4 C 48 % 1007,2 hPa 0,0 l/m 1,6 km/h N 12,6 C 24,4 C 7,2 km/h
19.05.2017 21:00 22,5 C 54 % 1007,8 hPa 0,0 l/m 0,7 km/h N 12,7 C 22,5 C 4,8 km/h
19.05.2017 22:00 20,9 C 60 % 1008,8 hPa 0,0 l/m 2,9 km/h N 12,9 C 20,5 C 11,3 km/h
19.05.2017 23:00 17,6 C 63 % 1010,8 hPa 0,0 l/m 8,8 km/h N 10,5 C 16,5 C 31,4 km/h
20.05.2017 00:00 15,8 C 62 % 1011,7 hPa 0,0 l/m 11,2 km/h N 8,6 C 13,6 C 39,4 km/h
20.05.2017 01:00 15,2 C 64 % 1012,2 hPa 0,0 l/m 12,8 km/h N 8,3 C 12,3 C 43,9 km/h
20.05.2017 02:00 14,7 C 66 % 1012,3 hPa 0,0 l/m 13,7 km/h N 8,4 C 11,4 C 41,4 km/h
20.05.2017 03:00 14,2 C 66 % 1012,5 hPa 0,0 l/m 16,4 km/h N 7,9 C 9,8 C 45,1 km/h
20.05.2017 04:00 14,2 C 66 % 1012,9 hPa 0,0 l/m 15,6 km/h N 7,9 C 10,1 C 40,6 km/h
20.05.2017 05:00 13,8 C 68 % 1013,8 hPa 0,0 l/m 15,2 km/h N 7,9 C 9,7 C 39,4 km/h
20.05.2017 06:00 13,5 C 68 % 1014,6 hPa 0,0 l/m 15,8 km/h N 7,8 C 9,2 C 39,0 km/h
20.05.2017 07:00 13,8 C 67 % 1015,0 hPa 0,0 l/m 14,4 km/h N 7,7 C 10,0 C 41,5 km/h
20.05.2017 08:00 14,2 C 66 % 1015,7 hPa 0,0 l/m 16,3 km/h N 7,9 C 9,8 C 40,3 km/h
20.05.2017 09:00 14,6 C 65 % 1016,2 hPa 0,0 l/m 16,0 km/h N 8,0 C 10,4 C 35,4 km/h
20.05.2017 10:00 14,9 C 64 % 1016,6 hPa 0,0 l/m 14,9 km/h N 8,0 C 11,1 C 38,2 km/h
20.05.2017 11:00 15,1 C 63 % 1016,8 hPa 0,0 l/m 15,9 km/h N 8,1 C 11,1 C 37,8 km/h
20.05.2017 12:00 15,6 C 61 % 1017,2 hPa 0,0 l/m 13,7 km/h N 8,2 C 12,4 C 34,6 km/h
20.05.2017 13:00 15,4 C 62 % 1017,4 hPa 0,0 l/m 15,0 km/h N 8,1 C 11,7 C 33,0 km/h
20.05.2017 14:00 15,6 C 62 % 1017,4 hPa 0,0 l/m 14,6 km/h N 8,3 C 12,1 C 35,0 km/h
20.05.2017 15:00 15,6 C 62 % 1017,5 hPa 0,0 l/m 12,8 km/h N 8,3 C 12,8 C 31,8 km/h
20.05.2017 16:00 15,9 C 63 % 1017,6 hPa 0,0 l/m 11,6 km/h N 8,7 C 13,4 C 28,2 km/h
20.05.2017 17:00 16,7 C 62 % 1017,5 hPa 0,0 l/m 10,6 km/h N 9,4 C 14,8 C 27,8 km/h
20.05.2017 18:00 16,2 C 62 % 1017,5 hPa 0,0 l/m 13,5 km/h N 8,9 C 13,1 C 33,4 km/h
20.05.2017 19:00 15,7 C 63 % 1018,0 hPa 0,0 l/m 10,7 km/h N 8,5 C 13,6 C 30,6 km/h
20.05.2017 20:00 15,5 C 64 % 1018,7 hPa 0,0 l/m 8,8 km/h N 8,6 C 14,2 C 27,0 km/h
20.05.2017 21:00 15,1 C 67 % 1018,9 hPa 0,0 l/m 11,3 km/h N 9,0 C 12,8 C 29,8 km/h
20.05.2017 22:00 15,2 C 67 % 1019,3 hPa 0,0 l/m 13,1 km/h N 9,0 C 12,1 C 30,2 km/h
20.05.2017 23:00 14,4 C 73 % 1019,7 hPa 0,3 l/m 12,9 km/h N 9,6 C 11,3 C 31,8 km/h
21.05.2017 00:00 12,7 C 81 % 1020,6 hPa 1,3 l/m 6,6 km/h N 9,5 C 12,2 C 20,9 km/h
21.05.2017 01:00 12,3 C 82 % 1020,2 hPa 8,8 l/m 9,7 km/h N 9,3 C 10,3 C 25,3 km/h
21.05.2017 02:00 12,3 C 82 % 1020,2 hPa 4,7 l/m 9,7 km/h N 9,3 C 10,3 C 24,1 km/h
21.05.2017 03:00 12,3 C 82 % 1020,1 hPa 3,6 l/m 12,3 km/h N 9,3 C 9,0 C 29,0 km/h
21.05.2017 04:00 12,3 C 82 % 1020,5 hPa 1,8 l/m 9,8 km/h N 9,3 C 10,2 C 25,7 km/h
21.05.2017 05:00 12,2 C 82 % 1020,9 hPa 1,6 l/m 11,8 km/h N 9,2 C 9,2 C 26,6 km/h
21.05.2017 06:00 12,2 C 82 % 1021,3 hPa 0,5 l/m 9,4 km/h N 9,2 C 10,4 C 22,9 km/h
21.05.2017 07:00 12,3 C 82 % 1021,8 hPa 0,0 l/m 12,2 km/h N 9,3 C 9,1 C 26,5 km/h
21.05.2017 08:00 12,6 C 82 % 1022,2 hPa 0,0 l/m 12,6 km/h N 9,6 C 9,3 C 27,0 km/h
21.05.2017 09:00 13,4 C 81 % 1022,5 hPa 0,3 l/m 12,6 km/h N 10,1 C 10,2 C 29,8 km/h
21.05.2017 10:00 14,3 C 79 % 1022,6 hPa 0,0 l/m 13,4 km/h N 10,7 C 11,0 C 30,6 km/h
21.05.2017 11:00 15,1 C 76 % 1022,9 hPa 0,0 l/m 14,6 km/h N 10,8 C 11,4 C 33,4 km/h
21.05.2017 12:00 15,4 C 74 % 1022,9 hPa 0,0 l/m 14,3 km/h N 10,8 C 12,0 C 34,2 km/h
21.05.2017 13:00 16,1 C 72 % 1022,8 hPa 0,0 l/m 13,9 km/h N 11,1 C 12,9 C 33,8 km/h
21.05.2017 14:00 17,0 C 71 % 1022,4 hPa 0,0 l/m 12,9 km/h N 11,6 C 14,2 C 33,8 km/h
21.05.2017 15:00 17,3 C 69 % 1022,1 hPa 0,0 l/m 15,3 km/h N 11,6 C 13,9 C 36,2 km/h
21.05.2017 16:00 17,1 C 69 % 1021,7 hPa 0,0 l/m 13,7 km/h N 11,4 C 14,2 C 33,0 km/h
21.05.2017 17:00 17,8 C 67 % 1021,3 hPa 0,0 l/m 12,9 km/h N 11,5 C 15,3 C 32,6 km/h
21.05.2017 18:00 17,9 C 64 % 1020,8 hPa 0,0 l/m 12,1 km/h N 11,0 C 15,6 C 32,2 km/h
21.05.2017 19:00 17,5 C 64 % 1020,6 hPa 0,0 l/m 9,6 km/h N 10,7 C 16,1 C 26,5 km/h
21.05.2017 20:00 16,7 C 67 % 1020,6 hPa 0,0 l/m 10,1 km/h N 10,4 C 14,9 C 24,1 km/h
21.05.2017 21:00 16,2 C 67 % 1020,7 hPa 0,0 l/m 7,6 km/h N 10,1 C 15,5 C 21,7 km/h
21.05.2017 22:00 15,8 C 68 % 1020,8 hPa 0,0 l/m 4,6 km/h N 9,9 C 15,6 C 17,7 km/h
21.05.2017 23:00 15,4 C 68 % 1020,8 hPa 0,0 l/m 4,8 km/h N 9,6 C 15,4 C 16,9 km/h
Min-Datum _ 18.05.17 19.05.17 19.05.17 - 15.05.17 - 18.05.17 21.05.17 15.05.17
_ Min-Zeit 05:45 17:15 18:30 - 00:45 - 02:15 07:45 00:45
Minimum _ 9,7 C 34 % 1006,9 hPa - 0,0 km/h - 6,6 C 8,0 C 0,0 km/h
Max-Datum _ 19.05.17 18.05.17 16.05.17 21.05.17 20.05.17 - 15.05.17 19.05.17 20.05.17
_ Max-Zeit 14:30 03:00 09:00 01:30 06:15 - 17:45 14:30 03:30
Maximum _ 28,3 C 82 % 1029,0 hPa 8,8 l/m 17,9 km/h
N
- 14,8 C 28,3 C 51,5 km/h
N
Durchschnitt _ 17,9 C 64 % 1019,6 hPa #26,5 l/m 5,4 km/h N 10,7 C 17,1 C 16,1 km/h